createdAt,value
2023-03-29T00:03:47.572Z,0.69
2023-03-29T00:09:15.949Z,0.74
2023-03-29T00:14:42.614Z,0.71
2023-03-29T00:20:10.503Z,0.50
2023-03-29T00:25:37.870Z,0.65
2023-03-29T00:31:11.801Z,0.67
2023-03-29T00:36:40.759Z,0.63
2023-03-29T00:42:13.547Z,0.58
2023-03-29T00:47:45.905Z,0.60
2023-03-29T00:53:22.029Z,0.58
2023-03-29T00:59:10.430Z,0.71
2023-03-29T01:04:54.583Z,0.76
2023-03-29T01:10:31.956Z,0.95
2023-03-29T01:16:02.086Z,0.91
2023-03-29T01:21:45.479Z,0.88
2023-03-29T01:27:22.976Z,1.02
2023-03-29T01:32:59.962Z,1.00
2023-03-29T01:39:03.815Z,1.03
2023-03-29T01:44:43.324Z,0.92
2023-03-29T01:50:19.275Z,0.80
2023-03-29T01:55:54.980Z,0.71
2023-03-29T02:01:29.363Z,0.70
2023-03-29T02:06:59.764Z,0.75
2023-03-29T02:12:27.265Z,0.83
2023-03-29T02:17:54.981Z,0.74
2023-03-29T02:23:27.613Z,0.83
2023-03-29T02:28:56.159Z,0.95
2023-03-29T02:34:27.276Z,0.82
2023-03-29T02:39:55.302Z,1.00
2023-03-29T02:45:24.402Z,1.08
2023-03-29T02:50:56.698Z,1.12
2023-03-29T02:56:24.595Z,1.16
2023-03-29T03:01:53.021Z,1.20
2023-03-29T03:07:21.955Z,1.33
2023-03-29T03:12:50.168Z,1.22
2023-03-29T03:18:17.948Z,1.42
2023-03-29T03:23:46.522Z,1.53
2023-03-29T03:29:16.118Z,1.58
2023-03-29T03:35:05.899Z,1.76
2023-03-29T03:40:33.740Z,1.86
2023-03-29T03:46:01.686Z,1.88
2023-03-29T03:51:31.571Z,1.79
2023-03-29T03:56:59.325Z,1.89
2023-03-29T04:02:39.568Z,1.96
2023-03-29T04:08:08.034Z,1.94
2023-03-29T04:14:03.112Z,2.09
2023-03-29T04:20:01.626Z,2.16
2023-03-29T04:25:33.573Z,2.32
2023-03-29T04:31:37.948Z,2.27
2023-03-29T04:37:25.442Z,2.35
2023-03-29T04:42:54.832Z,2.80
2023-03-29T04:48:22.802Z,2.94
2023-03-29T04:53:51.716Z,2.97
2023-03-29T04:59:19.375Z,4.11
2023-03-29T05:04:47.699Z,6.63
2023-03-29T05:10:17.970Z,8.74
2023-03-29T05:15:45.660Z,9.82
2023-03-29T05:21:14.144Z,10.78
2023-03-29T05:26:45.248Z,12.39
2023-03-29T05:32:13.890Z,13.94
2023-03-29T05:37:42.157Z,14.99
2023-03-29T05:43:09.796Z,15.67
2023-03-29T05:48:37.715Z,16.98
2023-03-29T05:54:05.999Z,18.40
2023-03-29T05:59:35.308Z,19.35
2023-03-29T06:05:04.936Z,19.72
2023-03-29T06:10:57.559Z,19.91
2023-03-29T06:16:42.837Z,20.81
2023-03-29T06:22:14.752Z,22.42
2023-03-29T06:27:43.445Z,21.34
2023-03-29T06:33:13.477Z,20.09
2023-03-29T06:38:47.583Z,19.68
2023-03-29T06:44:40.842Z,18.67
2023-03-29T06:50:18.652Z,18.11
2023-03-29T06:56:12.070Z,18.70
2023-03-29T07:01:43.503Z,18.83
2023-03-29T07:07:20.678Z,18.54
2023-03-29T07:12:53.312Z,18.63
2023-03-29T07:18:21.401Z,18.85
2023-03-29T07:23:49.000Z,19.36
2023-03-29T07:29:16.936Z,19.50
2023-03-29T07:34:44.502Z,20.41
2023-03-29T07:40:35.132Z,22.71
2023-03-29T07:46:21.247Z,24.87
2023-03-29T07:51:50.105Z,25.18
2023-03-29T07:57:18.110Z,24.07
2023-03-29T08:02:52.930Z,23.15
2023-03-29T08:08:21.317Z,22.29
2023-03-29T08:13:56.635Z,22.40
2023-03-29T08:19:51.274Z,23.29
2023-03-29T08:25:22.207Z,22.86
2023-03-29T08:30:53.773Z,23.89
2023-03-29T08:36:22.260Z,25.32
2023-03-29T08:41:58.613Z,25.95
2023-03-29T08:47:54.800Z,27.92
2023-03-29T08:53:37.232Z,27.86
2023-03-29T08:59:30.943Z,28.96
2023-03-29T09:05:18.666Z,28.59
2023-03-29T09:11:23.172Z,26.78
2023-03-29T09:17:10.579Z,25.42
2023-03-29T09:22:44.450Z,26.43
2023-03-29T09:28:22.637Z,26.05
2023-03-29T09:34:09.629Z,25.25
2023-03-29T09:39:53.615Z,25.09
2023-03-29T09:45:24.447Z,24.23
2023-03-29T09:50:54.015Z,23.82
2023-03-29T09:56:21.831Z,21.73
2023-03-29T10:02:09.995Z,21.54
2023-03-29T10:07:47.627Z,21.45
2023-03-29T10:13:50.974Z,21.15
2023-03-29T10:19:36.397Z,21.36
2023-03-29T10:25:05.261Z,21.91
2023-03-29T10:30:37.621Z,22.31
2023-03-29T10:36:07.644Z,22.91
2023-03-29T10:41:36.079Z,22.62
2023-03-29T10:47:19.819Z,22.96
2023-03-29T10:52:48.542Z,22.86
2023-03-29T10:58:15.826Z,23.63
2023-03-29T11:04:16.429Z,22.62
2023-03-29T11:09:57.477Z,23.57
2023-03-29T11:15:48.737Z,24.02
2023-03-29T11:21:45.055Z,24.88
2023-03-29T11:27:17.363Z,25.22
2023-03-29T11:33:09.391Z,25.13
2023-03-29T11:38:48.426Z,24.99
2023-03-29T11:44:21.299Z,24.63
2023-03-29T11:49:54.915Z,24.15
2023-03-29T11:55:29.446Z,23.04
2023-03-29T12:01:04.933Z,21.72
2023-03-29T12:06:45.880Z,20.34
2023-03-29T12:12:46.836Z,20.42
2023-03-29T12:18:40.183Z,20.09
2023-03-29T12:24:13.297Z,19.73
2023-03-29T12:29:52.865Z,19.08
2023-03-29T12:35:34.742Z,19.16
2023-03-29T12:41:23.699Z,18.88
2023-03-29T12:47:00.670Z,18.27
2023-03-29T12:52:33.430Z,17.81
2023-03-29T12:58:07.409Z,17.81
2023-03-29T13:03:52.071Z,18.24
2023-03-29T13:09:23.813Z,18.14
2023-03-29T13:15:17.194Z,18.49
2023-03-29T13:20:45.091Z,18.41
2023-03-29T13:26:27.547Z,18.43
2023-03-29T13:32:13.694Z,18.98
2023-03-29T13:38:00.435Z,18.84
2023-03-29T13:43:51.431Z,18.62
2023-03-29T13:49:26.720Z,19.57
2023-03-29T13:55:02.111Z,19.83
2023-03-29T14:00:42.276Z,19.58
2023-03-29T14:06:13.110Z,19.26
2023-03-29T14:11:46.158Z,19.36
2023-03-29T14:17:21.578Z,19.39
2023-03-29T14:22:50.328Z,18.69
2023-03-29T14:28:31.002Z,18.48
2023-03-29T14:34:01.238Z,17.99
2023-03-29T14:39:29.381Z,17.74
2023-03-29T14:45:06.613Z,17.47
2023-03-29T14:50:36.171Z,17.31
2023-03-29T14:56:08.707Z,17.31
2023-03-29T15:01:44.936Z,17.78
2023-03-29T15:07:12.583Z,17.22
2023-03-29T15:12:43.939Z,17.74
2023-03-29T15:18:17.362Z,18.31
2023-03-29T15:23:56.133Z,18.43
2023-03-29T15:29:26.304Z,18.44
2023-03-29T15:35:06.691Z,17.95
2023-03-29T15:40:34.628Z,17.22
2023-03-29T15:46:03.312Z,16.83
2023-03-29T15:51:31.830Z,16.59
2023-03-29T15:57:07.871Z,16.36
2023-03-29T16:02:36.298Z,16.29
2023-03-29T16:08:04.197Z,16.10
2023-03-29T16:13:32.155Z,15.90
2023-03-29T16:18:59.929Z,15.72
2023-03-29T16:24:33.280Z,15.70
2023-03-29T16:30:00.820Z,15.48
2023-03-29T16:35:32.443Z,15.22
2023-03-29T16:41:00.814Z,14.92
2023-03-29T16:46:29.218Z,14.73
2023-03-29T16:51:56.370Z,14.52
2023-03-29T16:57:24.067Z,14.46
2023-03-29T17:02:51.847Z,14.34
2023-03-29T17:08:21.716Z,14.17
2023-03-29T17:13:50.986Z,14.06
2023-03-29T17:19:19.661Z,13.96
2023-03-29T17:24:48.238Z,13.77
2023-03-29T17:30:15.699Z,13.51
2023-03-29T17:35:44.396Z,13.64
2023-03-29T17:41:11.660Z,13.53
2023-03-29T17:46:39.143Z,13.43
2023-03-29T17:52:06.798Z,13.28
2023-03-29T17:57:34.257Z,13.13
2023-03-29T18:03:02.062Z,13.04
2023-03-29T18:08:31.071Z,13.07
2023-03-29T18:14:00.923Z,13.02
2023-03-29T18:19:28.903Z,12.82
2023-03-29T18:24:56.850Z,12.78
2023-03-29T18:30:24.912Z,12.63
2023-03-29T18:35:53.043Z,12.64
2023-03-29T18:41:21.744Z,12.54
2023-03-29T18:46:50.156Z,12.38
2023-03-29T18:52:17.646Z,12.36
2023-03-29T18:57:45.182Z,12.40
2023-03-29T19:03:13.243Z,12.60
2023-03-29T19:08:42.447Z,12.70
2023-03-29T19:14:11.406Z,12.70
2023-03-29T19:19:40.026Z,12.66
2023-03-29T19:25:08.162Z,12.64
2023-03-29T19:30:36.728Z,12.62
2023-03-29T19:36:04.027Z,12.69
2023-03-29T19:41:32.244Z,12.72
2023-03-29T19:47:00.424Z,12.67
2023-03-29T19:52:28.916Z,12.67
2023-03-29T19:57:55.848Z,12.62
2023-03-29T20:03:23.155Z,12.67
2023-03-29T20:08:53.116Z,12.66
2023-03-29T20:14:20.262Z,12.64
2023-03-29T20:19:48.381Z,12.59
2023-03-29T20:25:16.075Z,12.47
2023-03-29T20:30:43.124Z,12.43
2023-03-29T20:36:11.627Z,12.41
2023-03-29T20:41:39.051Z,12.41
2023-03-29T20:47:08.782Z,12.35
2023-03-29T20:52:36.251Z,12.19
2023-03-29T20:58:03.109Z,12.06
2023-03-29T21:03:30.260Z,12.02
2023-03-29T21:08:57.712Z,11.93
2023-03-29T21:14:26.880Z,12.05
2023-03-29T21:19:55.115Z,11.98
2023-03-29T21:25:22.572Z,12.07
2023-03-29T21:30:50.420Z,11.98
2023-03-29T21:36:18.708Z,11.81
2023-03-29T21:41:46.587Z,11.46
2023-03-29T21:47:14.351Z,11.19
2023-03-29T21:52:41.286Z,11.08
2023-03-29T21:58:08.118Z,10.87
2023-03-29T22:03:35.582Z,10.93
2023-03-29T22:09:03.886Z,11.15
2023-03-29T22:14:35.431Z,11.33
2023-03-29T22:20:04.933Z,11.55
2023-03-29T22:25:32.614Z,11.72
2023-03-29T22:31:09.855Z,11.63
2023-03-29T22:36:38.141Z,11.75
2023-03-29T22:42:05.740Z,11.85
2023-03-29T22:47:34.454Z,11.68
2023-03-29T22:53:01.970Z,11.64
2023-03-29T22:58:29.834Z,11.83
2023-03-29T23:03:57.565Z,11.98
2023-03-29T23:09:24.682Z,12.10
2023-03-29T23:14:53.418Z,12.10
2023-03-29T23:20:21.522Z,12.14
2023-03-29T23:25:49.956Z,12.22
2023-03-29T23:31:20.580Z,12.25
2023-03-29T23:36:47.730Z,12.23
2023-03-29T23:42:16.128Z,12.03
2023-03-29T23:47:45.910Z,11.90
2023-03-29T23:53:14.250Z,12.01
2023-03-29T23:58:42.120Z,11.95
